Ruili, China
Current Conditions -  °F | °C
As of 7:30 PM on Thursday 23 Oct 2014 (Local Time) from VYMD Reporting Station
Few Clouds Few Clouds  
Wind Chill: 81°   Ceiling: Unl
Heat Index: 86°   Visibility: 4mi
Dew Point: 75°   Wind: 0mph
Humidity: 84%   Direction: NA
Pressure: 29.83"   Gusts: NA
Location:  24.02°N, 97.83°E
Report Text: VYMD 231130Z 00000KT 7000 FEW030CB 27/24 Q1010
Loading
Personal Weather Stations






























Interactive Weather Map
Tropical Storm Tracking
New forecast layout! Learn more

10-Day Weather Forecast

Advertisements
Track Severe Weather on mobile